sensor_id;sensor_type;location;lat;lon;timestamp;P1;durP1;ratioP1;P2;durP2;ratioP2
11807;SDS011;5961;42.640;23.380;2023-09-12T00:00:09;5.63;;;2.83;;
11807;SDS011;5961;42.640;23.380;2023-09-12T00:02:36;6.90;;;2.70;;
11807;SDS011;5961;42.640;23.380;2023-09-12T00:05:03;3.03;;;2.70;;
11807;SDS011;5961;42.640;23.380;2023-09-12T00:07:30;3.77;;;2.70;;
11807;SDS011;5961;42.640;23.380;2023-09-12T00:09:57;3.60;;;2.90;;
11807;SDS011;5961;42.640;23.380;2023-09-12T00:12:24;7.83;;;2.87;;
11807;SDS011;5961;42.640;23.380;2023-09-12T00:14:51;3.80;;;2.47;;
11807;SDS011;5961;42.640;23.380;2023-09-12T00:17:19;5.67;;;2.70;;
11807;SDS011;5961;42.640;23.380;2023-09-12T00:19:45;4.30;;;3.00;;
11807;SDS011;5961;42.640;23.380;2023-09-12T00:22:12;5.03;;;2.93;;
11807;SDS011;5961;42.640;23.380;2023-09-12T00:24:39;4.10;;;3.17;;
11807;SDS011;5961;42.640;23.380;2023-09-12T00:27:05;2.90;;;2.70;;
11807;SDS011;5961;42.640;23.380;2023-09-12T00:29:32;5.20;;;3.17;;
11807;SDS011;5961;42.640;23.380;2023-09-12T00:31:59;3.77;;;3.13;;
11807;SDS011;5961;42.640;23.380;2023-09-12T00:34:27;4.27;;;3.13;;
11807;SDS011;5961;42.640;23.380;2023-09-12T00:36:54;5.63;;;3.30;;
11807;SDS011;5961;42.640;23.380;2023-09-12T00:39:20;5.17;;;3.20;;
11807;SDS011;5961;42.640;23.380;2023-09-12T00:41:47;5.43;;;3.03;;
11807;SDS011;5961;42.640;23.380;2023-09-12T00:44:14;3.83;;;3.10;;
11807;SDS011;5961;42.640;23.380;2023-09-12T00:46:40;4.97;;;3.07;;
11807;SDS011;5961;42.640;23.380;2023-09-12T00:49:10;6.20;;;2.93;;
11807;SDS011;5961;42.640;23.380;2023-09-12T00:51:40;4.70;;;3.10;;
11807;SDS011;5961;42.640;23.380;2023-09-12T00:54:08;3.93;;;2.77;;
11807;SDS011;5961;42.640;23.380;2023-09-12T00:56:35;5.10;;;2.90;;
11807;SDS011;5961;42.640;23.380;2023-09-12T00:59:03;6.60;;;3.13;;
11807;SDS011;5961;42.640;23.380;2023-09-12T01:01:31;5.73;;;3.20;;
11807;SDS011;5961;42.640;23.380;2023-09-12T01:03:58;6.53;;;3.43;;
11807;SDS011;5961;42.640;23.380;2023-09-12T01:06:26;6.00;;;3.10;;
11807;SDS011;5961;42.640;23.380;2023-09-12T01:08:57;4.73;;;3.13;;
11807;SDS011;5961;42.640;23.380;2023-09-12T01:11:23;5.40;;;3.27;;
11807;SDS011;5961;42.640;23.380;2023-09-12T01:13:50;3.87;;;2.93;;
11807;SDS011;5961;42.640;23.380;2023-09-12T01:16:17;5.30;;;3.13;;
11807;SDS011;5961;42.640;23.380;2023-09-12T01:18:44;4.17;;;2.87;;
11807;SDS011;5961;42.640;23.380;2023-09-12T01:21:18;4.67;;;2.90;;
11807;SDS011;5961;42.640;23.380;2023-09-12T01:24:05;5.00;;;3.03;;
11807;SDS011;5961;42.640;23.380;2023-09-12T01:26:53;3.50;;;2.80;;
11807;SDS011;5961;42.640;23.380;2023-09-12T01:29:26;3.50;;;2.80;;
11807;SDS011;5961;42.640;23.380;2023-09-12T01:31:53;7.10;;;3.77;;
11807;SDS011;5961;42.640;23.380;2023-09-12T01:34:21;5.00;;;2.90;;
11807;SDS011;5961;42.640;23.380;2023-09-12T01:36:48;5.03;;;3.43;;
11807;SDS011;5961;42.640;23.380;2023-09-12T01:39:14;4.97;;;3.13;;
11807;SDS011;5961;42.640;23.380;2023-09-12T01:41:41;3.17;;;2.87;;
11807;SDS011;5961;42.640;23.380;2023-09-12T01:44:12;4.37;;;2.87;;
11807;SDS011;5961;42.640;23.380;2023-09-12T01:46:42;4.13;;;2.80;;
11807;SDS011;5961;42.640;23.380;2023-09-12T01:49:10;3.23;;;2.80;;
11807;SDS011;5961;42.640;23.380;2023-09-12T01:51:38;4.10;;;3.30;;
11807;SDS011;5961;42.640;23.380;2023-09-12T01:54:05;5.53;;;3.17;;
11807;SDS011;5961;42.640;23.380;2023-09-12T01:56:33;3.17;;;2.87;;
11807;SDS011;5961;42.640;23.380;2023-09-12T01:59:01;4.53;;;2.80;;
11807;SDS011;5961;42.640;23.380;2023-09-12T02:01:29;3.40;;;3.10;;
11807;SDS011;5961;42.640;23.380;2023-09-12T02:03:57;4.07;;;3.10;;
11807;SDS011;5961;42.640;23.380;2023-09-12T02:06:24;3.13;;;2.90;;
11807;SDS011;5961;42.640;23.380;2023-09-12T02:08:50;5.70;;;2.90;;
11807;SDS011;5961;42.640;23.380;2023-09-12T02:11:17;5.20;;;3.23;;
11807;SDS011;5961;42.640;23.380;2023-09-12T02:13:44;3.30;;;3.00;;
11807;SDS011;5961;42.640;23.380;2023-09-12T02:16:10;3.10;;;2.80;;
11807;SDS011;5961;42.640;23.380;2023-09-12T02:18:37;5.23;;;3.30;;
11807;SDS011;5961;42.640;23.380;2023-09-12T02:21:05;4.37;;;2.93;;
11807;SDS011;5961;42.640;23.380;2023-09-12T02:23:32;6.47;;;3.43;;
11807;SDS011;5961;42.640;23.380;2023-09-12T02:25:58;6.00;;;3.60;;
11807;SDS011;5961;42.640;23.380;2023-09-12T02:28:25;7.30;;;3.47;;
11807;SDS011;5961;42.640;23.380;2023-09-12T02:30:52;9.13;;;3.83;;
11807;SDS011;5961;42.640;23.380;2023-09-12T02:33:18;8.03;;;3.33;;
11807;SDS011;5961;42.640;23.380;2023-09-12T02:35:45;3.97;;;3.30;;
11807;SDS011;5961;42.640;23.380;2023-09-12T02:38:13;4.23;;;3.17;;
11807;SDS011;5961;42.640;23.380;2023-09-12T02:40:40;4.70;;;3.30;;
11807;SDS011;5961;42.640;23.380;2023-09-12T02:43:07;5.63;;;3.73;;
11807;SDS011;5961;42.640;23.380;2023-09-12T02:45:33;6.17;;;3.37;;
11807;SDS011;5961;42.640;23.380;2023-09-12T02:48:00;5.10;;;3.40;;
11807;SDS011;5961;42.640;23.380;2023-09-12T02:50:26;5.70;;;3.17;;
11807;SDS011;5961;42.640;23.380;2023-09-12T02:52:53;6.60;;;3.30;;
11807;SDS011;5961;42.640;23.380;2023-09-12T02:55:21;5.83;;;3.33;;
11807;SDS011;5961;42.640;23.380;2023-09-12T02:57:48;3.93;;;3.13;;
11807;SDS011;5961;42.640;23.380;2023-09-12T03:00:15;5.60;;;3.07;;
11807;SDS011;5961;42.640;23.380;2023-09-12T03:02:41;4.83;;;3.30;;
11807;SDS011;5961;42.640;23.380;2023-09-12T03:05:08;4.83;;;3.37;;
11807;SDS011;5961;42.640;23.380;2023-09-12T03:07:35;5.43;;;2.80;;
11807;SDS011;5961;42.640;23.380;2023-09-12T03:10:01;5.00;;;3.40;;
11807;SDS011;5961;42.640;23.380;2023-09-12T03:12:30;3.63;;;2.60;;
11807;SDS011;5961;42.640;23.380;2023-09-12T03:14:56;4.87;;;2.47;;
11807;SDS011;5961;42.640;23.380;2023-09-12T03:17:23;3.63;;;2.80;;
11807;SDS011;5961;42.640;23.380;2023-09-12T03:19:50;3.13;;;2.70;;
11807;SDS011;5961;42.640;23.380;2023-09-12T03:22:16;4.00;;;3.20;;
11807;SDS011;5961;42.640;23.380;2023-09-12T03:24:43;4.20;;;2.50;;
11807;SDS011;5961;42.640;23.380;2023-09-12T03:27:11;5.30;;;2.90;;
11807;SDS011;5961;42.640;23.380;2023-09-12T03:29:39;5.50;;;3.00;;
11807;SDS011;5961;42.640;23.380;2023-09-12T03:32:05;5.83;;;3.00;;
11807;SDS011;5961;42.640;23.380;2023-09-12T03:34:32;4.20;;;3.10;;
11807;SDS011;5961;42.640;23.380;2023-09-12T03:36:59;3.77;;;2.70;;
11807;SDS011;5961;42.640;23.380;2023-09-12T03:39:26;6.03;;;2.57;;
11807;SDS011;5961;42.640;23.380;2023-09-12T03:41:52;4.33;;;2.60;;
11807;SDS011;5961;42.640;23.380;2023-09-12T03:44:19;2.83;;;2.30;;
11807;SDS011;5961;42.640;23.380;2023-09-12T03:46:47;4.70;;;2.80;;
11807;SDS011;5961;42.640;23.380;2023-09-12T03:49:14;5.00;;;2.90;;
11807;SDS011;5961;42.640;23.380;2023-09-12T03:51:40;4.03;;;2.73;;
11807;SDS011;5961;42.640;23.380;2023-09-12T03:54:07;3.53;;;2.77;;
11807;SDS011;5961;42.640;23.380;2023-09-12T03:56:34;5.93;;;3.20;;
11807;SDS011;5961;42.640;23.380;2023-09-12T03:59:00;2.97;;;2.67;;
11807;SDS011;5961;42.640;23.380;2023-09-12T04:01:28;5.03;;;3.00;;
11807;SDS011;5961;42.640;23.380;2023-09-12T04:03:56;3.50;;;3.20;;
11807;SDS011;5961;42.640;23.380;2023-09-12T04:06:22;5.10;;;3.60;;
11807;SDS011;5961;42.640;23.380;2023-09-12T04:08:49;6.33;;;3.13;;
11807;SDS011;5961;42.640;23.380;2023-09-12T04:11:17;5.90;;;3.03;;
11807;SDS011;5961;42.640;23.380;2023-09-12T04:13:43;5.67;;;3.27;;
11807;SDS011;5961;42.640;23.380;2023-09-12T04:16:10;5.70;;;3.07;;
11807;SDS011;5961;42.640;23.380;2023-09-12T04:18:37;3.73;;;3.00;;
11807;SDS011;5961;42.640;23.380;2023-09-12T04:21:05;6.23;;;3.33;;
11807;SDS011;5961;42.640;23.380;2023-09-12T04:37:05;8.63;;;3.80;;
11807;SDS011;5961;42.640;23.380;2023-09-12T04:39:32;7.67;;;3.37;;
11807;SDS011;5961;42.640;23.380;2023-09-12T04:41:59;4.07;;;3.27;;
11807;SDS011;5961;42.640;23.380;2023-09-12T04:44:24;8.57;;;3.37;;
11807;SDS011;5961;42.640;23.380;2023-09-12T04:46:51;4.53;;;2.77;;
11807;SDS011;5961;42.640;23.380;2023-09-12T04:49:18;4.83;;;3.00;;
11807;SDS011;5961;42.640;23.380;2023-09-12T04:51:44;4.63;;;3.00;;
11807;SDS011;5961;42.640;23.380;2023-09-12T04:54:12;4.13;;;3.07;;
11807;SDS011;5961;42.640;23.380;2023-09-12T04:56:39;4.87;;;3.00;;
11807;SDS011;5961;42.640;23.380;2023-09-12T04:59:06;6.60;;;3.57;;
11807;SDS011;5961;42.640;23.380;2023-09-12T05:01:32;4.97;;;3.40;;
11807;SDS011;5961;42.640;23.380;2023-09-12T05:03:59;3.67;;;3.37;;
11807;SDS011;5961;42.640;23.380;2023-09-12T05:06:26;3.87;;;3.00;;
11807;SDS011;5961;42.640;23.380;2023-09-12T05:08:52;5.80;;;3.07;;
11807;SDS011;5961;42.640;23.380;2023-09-12T05:11:21;6.77;;;3.47;;
11807;SDS011;5961;42.640;23.380;2023-09-12T05:13:48;5.67;;;3.30;;
11807;SDS011;5961;42.640;23.380;2023-09-12T05:16:14;5.47;;;3.37;;
11807;SDS011;5961;42.640;23.380;2023-09-12T05:18:41;3.93;;;3.00;;
11807;SDS011;5961;42.640;23.380;2023-09-12T05:21:08;4.17;;;3.33;;
11807;SDS011;5961;42.640;23.380;2023-09-12T05:23:35;5.97;;;3.13;;
11807;SDS011;5961;42.640;23.380;2023-09-12T05:26:01;8.80;;;3.30;;
11807;SDS011;5961;42.640;23.380;2023-09-12T05:28:30;5.33;;;3.03;;
11807;SDS011;5961;42.640;23.380;2023-09-12T05:30:57;9.03;;;3.40;;
11807;SDS011;5961;42.640;23.380;2023-09-12T05:33:23;7.33;;;3.43;;
11807;SDS011;5961;42.640;23.380;2023-09-12T05:35:50;6.63;;;3.73;;
11807;SDS011;5961;42.640;23.380;2023-09-12T05:38:16;5.73;;;4.00;;
11807;SDS011;5961;42.640;23.380;2023-09-12T05:40:43;10.43;;;3.77;;
11807;SDS011;5961;42.640;23.380;2023-09-12T05:43:10;8.43;;;3.83;;
11807;SDS011;5961;42.640;23.380;2023-09-12T05:45:38;5.60;;;3.77;;
11807;SDS011;5961;42.640;23.380;2023-09-12T05:48:05;5.23;;;3.10;;
11807;SDS011;5961;42.640;23.380;2023-09-12T05:50:31;5.83;;;3.87;;
11807;SDS011;5961;42.640;23.380;2023-09-12T05:52:58;10.10;;;7.93;;
11807;SDS011;5961;42.640;23.380;2023-09-12T05:55:25;5.87;;;4.37;;
11807;SDS011;5961;42.640;23.380;2023-09-12T05:57:51;5.90;;;3.60;;
11807;SDS011;5961;42.640;23.380;2023-09-12T06:00:18;5.20;;;3.47;;
11807;SDS011;5961;42.640;23.380;2023-09-12T06:02:46;7.53;;;3.73;;
11807;SDS011;5961;42.640;23.380;2023-09-12T06:05:13;9.07;;;5.13;;
11807;SDS011;5961;42.640;23.380;2023-09-12T06:07:40;9.53;;;5.03;;
11807;SDS011;5961;42.640;23.380;2023-09-12T06:10:07;7.13;;;4.70;;
11807;SDS011;5961;42.640;23.380;2023-09-12T06:12:35;8.07;;;4.80;;
11807;SDS011;5961;42.640;23.380;2023-09-12T06:15:02;8.43;;;4.70;;
11807;SDS011;5961;42.640;23.380;2023-09-12T06:17:29;6.60;;;4.77;;
11807;SDS011;5961;42.640;23.380;2023-09-12T06:19:57;9.57;;;4.63;;
11807;SDS011;5961;42.640;23.380;2023-09-12T06:22:24;6.37;;;4.20;;
11807;SDS011;5961;42.640;23.380;2023-09-12T06:24:50;5.90;;;3.87;;
11807;SDS011;5961;42.640;23.380;2023-09-12T06:27:18;6.90;;;4.87;;
11807;SDS011;5961;42.640;23.380;2023-09-12T06:29:44;4.37;;;2.90;;
11807;SDS011;5961;42.640;23.380;2023-09-12T06:32:13;3.47;;;3.00;;
11807;SDS011;5961;42.640;23.380;2023-09-12T06:34:39;6.07;;;3.20;;
11807;SDS011;5961;42.640;23.380;2023-09-12T06:37:10;4.47;;;4.03;;
11807;SDS011;5961;42.640;23.380;2023-09-12T06:39:39;6.93;;;3.70;;
11807;SDS011;5961;42.640;23.380;2023-09-12T06:42:06;8.50;;;3.73;;
11807;SDS011;5961;42.640;23.380;2023-09-12T06:44:33;9.40;;;5.80;;
11807;SDS011;5961;42.640;23.380;2023-09-12T06:46:59;8.37;;;7.33;;
11807;SDS011;5961;42.640;23.380;2023-09-12T06:49:26;10.80;;;7.50;;
11807;SDS011;5961;42.640;23.380;2023-09-12T06:51:53;7.83;;;6.23;;
11807;SDS011;5961;42.640;23.380;2023-09-12T06:54:21;8.87;;;5.63;;
11807;SDS011;5961;42.640;23.380;2023-09-12T06:56:48;5.70;;;5.03;;
11807;SDS011;5961;42.640;23.380;2023-09-12T06:59:15;6.00;;;4.10;;
11807;SDS011;5961;42.640;23.380;2023-09-12T07:01:41;6.07;;;4.00;;
11807;SDS011;5961;42.640;23.380;2023-09-12T07:04:08;7.63;;;4.00;;
11807;SDS011;5961;42.640;23.380;2023-09-12T07:06:35;7.17;;;4.43;;
11807;SDS011;5961;42.640;23.380;2023-09-12T07:09:02;10.50;;;4.37;;
11807;SDS011;5961;42.640;23.380;2023-09-12T07:11:31;7.40;;;3.80;;
11807;SDS011;5961;42.640;23.380;2023-09-12T07:13:57;5.73;;;3.97;;
11807;SDS011;5961;42.640;23.380;2023-09-12T07:16:24;9.10;;;6.37;;
11807;SDS011;5961;42.640;23.380;2023-09-12T07:18:51;6.63;;;5.33;;
11807;SDS011;5961;42.640;23.380;2023-09-12T07:21:18;11.20;;;6.83;;
11807;SDS011;5961;42.640;23.380;2023-09-12T07:23:45;13.17;;;5.27;;
11807;SDS011;5961;42.640;23.380;2023-09-12T07:26:12;8.50;;;5.70;;
11807;SDS011;5961;42.640;23.380;2023-09-12T07:28:41;4.80;;;3.50;;
11807;SDS011;5961;42.640;23.380;2023-09-12T07:31:07;5.80;;;2.97;;
11807;SDS011;5961;42.640;23.380;2023-09-12T07:33:34;7.40;;;6.03;;
11807;SDS011;5961;42.640;23.380;2023-09-12T07:36:01;5.93;;;3.40;;
11807;SDS011;5961;42.640;23.380;2023-09-12T07:38:28;4.63;;;2.90;;
11807;SDS011;5961;42.640;23.380;2023-09-12T07:40:56;6.67;;;3.73;;
11807;SDS011;5961;42.640;23.380;2023-09-12T07:43:22;7.10;;;3.97;;
11807;SDS011;5961;42.640;23.380;2023-09-12T07:45:54;7.30;;;5.27;;
11807;SDS011;5961;42.640;23.380;2023-09-12T07:48:21;6.30;;;4.37;;
11807;SDS011;5961;42.640;23.380;2023-09-12T07:50:48;7.87;;;3.50;;
11807;SDS011;5961;42.640;23.380;2023-09-12T07:53:14;5.23;;;3.90;;
11807;SDS011;5961;42.640;23.380;2023-09-12T07:55:41;7.17;;;3.37;;
11807;SDS011;5961;42.640;23.380;2023-09-12T07:58:11;4.60;;;3.10;;
11807;SDS011;5961;42.640;23.380;2023-09-12T08:00:39;8.90;;;4.13;;
11807;SDS011;5961;42.640;23.380;2023-09-12T08:03:07;5.90;;;3.23;;
11807;SDS011;5961;42.640;23.380;2023-09-12T08:05:34;11.33;;;3.70;;
11807;SDS011;5961;42.640;23.380;2023-09-12T08:08:01;8.53;;;3.90;;
11807;SDS011;5961;42.640;23.380;2023-09-12T08:10:28;6.40;;;3.80;;
11807;SDS011;5961;42.640;23.380;2023-09-12T08:12:55;5.47;;;3.50;;
11807;SDS011;5961;42.640;23.380;2023-09-12T08:15:22;7.67;;;4.27;;
11807;SDS011;5961;42.640;23.380;2023-09-12T08:17:48;14.17;;;4.60;;
11807;SDS011;5961;42.640;23.380;2023-09-12T08:20:18;5.87;;;4.00;;
11807;SDS011;5961;42.640;23.380;2023-09-12T08:22:45;7.20;;;4.30;;
11807;SDS011;5961;42.640;23.380;2023-09-12T08:25:12;7.93;;;4.13;;
11807;SDS011;5961;42.640;23.380;2023-09-12T08:27:39;8.30;;;3.97;;
11807;SDS011;5961;42.640;23.380;2023-09-12T08:30:07;7.73;;;4.30;;
11807;SDS011;5961;42.640;23.380;2023-09-12T08:32:35;9.27;;;4.13;;
11807;SDS011;5961;42.640;23.380;2023-09-12T08:35:04;4.57;;;4.07;;
11807;SDS011;5961;42.640;23.380;2023-09-12T08:37:33;8.80;;;3.77;;
11807;SDS011;5961;42.640;23.380;2023-09-12T08:40:00;10.05;;;5.82;;
11807;SDS011;5961;42.640;23.380;2023-09-12T08:42:32;7.50;;;4.30;;
11807;SDS011;5961;42.640;23.380;2023-09-12T08:45:06;10.00;;;5.47;;
11807;SDS011;5961;42.640;23.380;2023-09-12T08:47:37;7.17;;;3.73;;
11807;SDS011;5961;42.640;23.380;2023-09-12T08:50:07;5.40;;;3.55;;
11807;SDS011;5961;42.640;23.380;2023-09-12T08:52:37;7.47;;;3.58;;
11807;SDS011;5961;42.640;23.380;2023-09-12T08:55:04;11.60;;;4.37;;
11807;SDS011;5961;42.640;23.380;2023-09-12T08:57:32;6.20;;;3.53;;
11807;SDS011;5961;42.640;23.380;2023-09-12T09:00:02;5.15;;;4.03;;
11807;SDS011;5961;42.640;23.380;2023-09-12T09:02:31;11.33;;;4.23;;
11807;SDS011;5961;42.640;23.380;2023-09-12T09:04:58;8.00;;;3.70;;
11807;SDS011;5961;42.640;23.380;2023-09-12T09:07:30;9.25;;;4.00;;
11807;SDS011;5961;42.640;23.380;2023-09-12T09:10:01;9.30;;;4.07;;
11807;SDS011;5961;42.640;23.380;2023-09-12T09:12:30;5.72;;;3.75;;
11807;SDS011;5961;42.640;23.380;2023-09-12T09:14:56;6.07;;;3.67;;
11807;SDS011;5961;42.640;23.380;2023-09-12T09:17:23;5.63;;;4.53;;
11807;SDS011;5961;42.640;23.380;2023-09-12T09:19:50;8.52;;;4.20;;
11807;SDS011;5961;42.640;23.380;2023-09-12T09:22:19;5.20;;;4.20;;
11807;SDS011;5961;42.640;23.380;2023-09-12T09:24:45;8.98;;;4.00;;
11807;SDS011;5961;42.640;23.380;2023-09-12T09:27:14;7.60;;;3.35;;
11807;SDS011;5961;42.640;23.380;2023-09-12T09:29:59;5.10;;;3.47;;
11807;SDS011;5961;42.640;23.380;2023-09-12T09:32:26;6.13;;;3.50;;
11807;SDS011;5961;42.640;23.380;2023-09-12T09:34:52;4.68;;;3.47;;
11807;SDS011;5961;42.640;23.380;2023-09-12T09:37:19;6.05;;;3.30;;
11807;SDS011;5961;42.640;23.380;2023-09-12T09:39:46;7.53;;;3.80;;
11807;SDS011;5961;42.640;23.380;2023-09-12T09:42:18;5.60;;;3.50;;
11807;SDS011;5961;42.640;23.380;2023-09-12T09:44:45;8.02;;;3.53;;
11807;SDS011;5961;42.640;23.380;2023-09-12T09:47:13;3.25;;;2.95;;
11807;SDS011;5961;42.640;23.380;2023-09-12T09:49:40;5.85;;;2.95;;
11807;SDS011;5961;42.640;23.380;2023-09-12T09:52:11;4.68;;;3.20;;
11807;SDS011;5961;42.640;23.380;2023-09-12T09:54:42;4.97;;;3.00;;
11807;SDS011;5961;42.640;23.380;2023-09-12T09:57:10;7.43;;;3.35;;
11807;SDS011;5961;42.640;23.380;2023-09-12T09:59:38;6.10;;;3.00;;
11807;SDS011;5961;42.640;23.380;2023-09-12T10:02:05;5.30;;;2.88;;
11807;SDS011;5961;42.640;23.380;2023-09-12T10:04:40;15.65;;;4.53;;
11807;SDS011;5961;42.640;23.380;2023-09-12T10:07:10;8.55;;;3.60;;
11807;SDS011;5961;42.640;23.380;2023-09-12T10:09:37;5.55;;;3.65;;
11807;SDS011;5961;42.640;23.380;2023-09-12T10:12:07;7.70;;;3.35;;
11807;SDS011;5961;42.640;23.380;2023-09-12T10:14:34;7.22;;;3.55;;
11807;SDS011;5961;42.640;23.380;2023-09-12T10:17:03;7.55;;;3.40;;
11807;SDS011;5961;42.640;23.380;2023-09-12T10:19:31;6.55;;;4.00;;
11807;SDS011;5961;42.640;23.380;2023-09-12T10:22:03;7.20;;;4.47;;
11807;SDS011;5961;42.640;23.380;2023-09-12T10:24:35;7.28;;;3.90;;
11807;SDS011;5961;42.640;23.380;2023-09-12T10:27:03;5.38;;;2.70;;
11807;SDS011;5961;42.640;23.380;2023-09-12T10:29:32;9.90;;;3.47;;
11807;SDS011;5961;42.640;23.380;2023-09-12T10:32:00;5.93;;;3.40;;
11807;SDS011;5961;42.640;23.380;2023-09-12T10:34:28;6.30;;;3.58;;
11807;SDS011;5961;42.640;23.380;2023-09-12T10:36:58;6.22;;;3.35;;
11807;SDS011;5961;42.640;23.380;2023-09-12T10:39:27;8.73;;;3.55;;
11807;SDS011;5961;42.640;23.380;2023-09-12T10:41:54;4.75;;;3.63;;
11807;SDS011;5961;42.640;23.380;2023-09-12T10:44:21;4.63;;;3.53;;
11807;SDS011;5961;42.640;23.380;2023-09-12T10:46:48;3.83;;;3.25;;
11807;SDS011;5961;42.640;23.380;2023-09-12T10:49:15;8.02;;;3.45;;
11807;SDS011;5961;42.640;23.380;2023-09-12T10:51:46;6.90;;;3.30;;
11807;SDS011;5961;42.640;23.380;2023-09-12T10:54:14;8.27;;;3.35;;
11807;SDS011;5961;42.640;23.380;2023-09-12T10:56:42;7.93;;;3.35;;
11807;SDS011;5961;42.640;23.380;2023-09-12T10:59:10;6.85;;;3.38;;
11807;SDS011;5961;42.640;23.380;2023-09-12T11:01:38;14.75;;;3.30;;
11807;SDS011;5961;42.640;23.380;2023-09-12T11:07:00;6.88;;;3.30;;
11807;SDS011;5961;42.640;23.380;2023-09-12T11:09:27;6.78;;;3.38;;
11807;SDS011;5961;42.640;23.380;2023-09-12T11:11:55;7.38;;;3.95;;
11807;SDS011;5961;42.640;23.380;2023-09-12T11:14:23;7.88;;;3.53;;
11807;SDS011;5961;42.640;23.380;2023-09-12T11:19:49;5.40;;;4.55;;
11807;SDS011;5961;42.640;23.380;2023-09-12T11:22:23;4.45;;;3.67;;
11807;SDS011;5961;42.640;23.380;2023-09-12T11:24:51;4.25;;;3.63;;
11807;SDS011;5961;42.640;23.380;2023-09-12T11:27:18;5.43;;;3.13;;
11807;SDS011;5961;42.640;23.380;2023-09-12T11:29:46;5.18;;;3.83;;
11807;SDS011;5961;42.640;23.380;2023-09-12T11:32:26;4.90;;;3.03;;
11807;SDS011;5961;42.640;23.380;2023-09-12T11:34:56;5.68;;;3.28;;
11807;SDS011;5961;42.640;23.380;2023-09-12T11:37:26;5.20;;;3.20;;
11807;SDS011;5961;42.640;23.380;2023-09-12T11:39:55;4.50;;;3.42;;
11807;SDS011;5961;42.640;23.380;2023-09-12T11:42:22;7.30;;;3.33;;
11807;SDS011;5961;42.640;23.380;2023-09-12T11:44:50;8.00;;;5.18;;
11807;SDS011;5961;42.640;23.380;2023-09-12T11:47:18;6.10;;;5.32;;
11807;SDS011;5961;42.640;23.380;2023-09-12T11:49:45;10.00;;;4.32;;
11807;SDS011;5961;42.640;23.380;2023-09-12T11:52:13;6.45;;;3.97;;
11807;SDS011;5961;42.640;23.380;2023-09-12T11:54:43;5.88;;;3.50;;
11807;SDS011;5961;42.640;23.380;2023-09-12T11:57:12;6.38;;;3.95;;
11807;SDS011;5961;42.640;23.380;2023-09-12T11:59:40;5.38;;;3.40;;
11807;SDS011;5961;42.640;23.380;2023-09-12T12:02:10;9.30;;;4.38;;
11807;SDS011;5961;42.640;23.380;2023-09-12T12:04:37;6.10;;;3.45;;
11807;SDS011;5961;42.640;23.380;2023-09-12T12:07:04;9.10;;;4.22;;
11807;SDS011;5961;42.640;23.380;2023-09-12T12:09:33;6.95;;;3.55;;
11807;SDS011;5961;42.640;23.380;2023-09-12T12:12:10;7.07;;;3.72;;
11807;SDS011;5961;42.640;23.380;2023-09-12T12:14:38;4.90;;;3.55;;
11807;SDS011;5961;42.640;23.380;2023-09-12T12:17:06;6.35;;;3.20;;
11807;SDS011;5961;42.640;23.380;2023-09-12T12:19:34;7.88;;;3.72;;
11807;SDS011;5961;42.640;23.380;2023-09-12T12:22:02;4.47;;;3.17;;
11807;SDS011;5961;42.640;23.380;2023-09-12T12:24:37;8.48;;;3.40;;
11807;SDS011;5961;42.640;23.380;2023-09-12T12:27:04;9.95;;;3.40;;
11807;SDS011;5961;42.640;23.380;2023-09-12T12:29:34;10.13;;;3.13;;
11807;SDS011;5961;42.640;23.380;2023-09-12T12:32:01;6.07;;;3.53;;
11807;SDS011;5961;42.640;23.380;2023-09-12T12:34:30;9.60;;;3.60;;
11807;SDS011;5961;42.640;23.380;2023-09-12T12:36:57;7.80;;;4.28;;
11807;SDS011;5961;42.640;23.380;2023-09-12T12:39:24;6.13;;;3.47;;
11807;SDS011;5961;42.640;23.380;2023-09-12T12:41:51;7.55;;;3.75;;
11807;SDS011;5961;42.640;23.380;2023-09-12T12:44:18;5.78;;;3.35;;
11807;SDS011;5961;42.640;23.380;2023-09-12T12:46:50;8.18;;;3.58;;
11807;SDS011;5961;42.640;23.380;2023-09-12T12:49:18;6.30;;;3.10;;
11807;SDS011;5961;42.640;23.380;2023-09-12T12:51:45;5.93;;;3.88;;
11807;SDS011;5961;42.640;23.380;2023-09-12T12:54:12;4.95;;;3.63;;
11807;SDS011;5961;42.640;23.380;2023-09-12T12:56:39;6.15;;;3.80;;
11807;SDS011;5961;42.640;23.380;2023-09-12T12:59:07;7.38;;;3.83;;
11807;SDS011;5961;42.640;23.380;2023-09-12T13:01:34;9.35;;;3.83;;
11807;SDS011;5961;42.640;23.380;2023-09-12T13:04:03;8.23;;;4.55;;
11807;SDS011;5961;42.640;23.380;2023-09-12T13:06:31;8.40;;;4.00;;
11807;SDS011;5961;42.640;23.380;2023-09-12T13:09:00;7.85;;;3.72;;
11807;SDS011;5961;42.640;23.380;2023-09-12T13:11:30;9.15;;;3.88;;
11807;SDS011;5961;42.640;23.380;2023-09-12T13:13:58;7.00;;;4.45;;
11807;SDS011;5961;42.640;23.380;2023-09-12T13:16:25;5.43;;;3.50;;
11807;SDS011;5961;42.640;23.380;2023-09-12T13:18:52;7.40;;;3.75;;
11807;SDS011;5961;42.640;23.380;2023-09-12T13:21:20;5.55;;;4.07;;
11807;SDS011;5961;42.640;23.380;2023-09-12T13:23:46;6.57;;;3.67;;
11807;SDS011;5961;42.640;23.380;2023-09-12T13:26:13;7.18;;;3.97;;
11807;SDS011;5961;42.640;23.380;2023-09-12T13:28:39;6.03;;;3.70;;
11807;SDS011;5961;42.640;23.380;2023-09-12T13:31:06;5.57;;;3.45;;
11807;SDS011;5961;42.640;23.380;2023-09-12T13:33:33;6.85;;;3.33;;
11807;SDS011;5961;42.640;23.380;2023-09-12T13:36:00;6.38;;;3.50;;
11807;SDS011;5961;42.640;23.380;2023-09-12T13:38:28;4.28;;;3.50;;
11807;SDS011;5961;42.640;23.380;2023-09-12T13:40:54;7.38;;;3.40;;
11807;SDS011;5961;42.640;23.380;2023-09-12T13:43:21;6.47;;;3.70;;
11807;SDS011;5961;42.640;23.380;2023-09-12T13:45:48;7.65;;;3.53;;
11807;SDS011;5961;42.640;23.380;2023-09-12T13:48:14;6.63;;;3.40;;
11807;SDS011;5961;42.640;23.380;2023-09-12T13:50:41;6.93;;;3.45;;
11807;SDS011;5961;42.640;23.380;2023-09-12T13:53:09;5.95;;;3.63;;
11807;SDS011;5961;42.640;23.380;2023-09-12T13:55:37;5.20;;;3.50;;
11807;SDS011;5961;42.640;23.380;2023-09-12T13:58:04;7.53;;;3.42;;
11807;SDS011;5961;42.640;23.380;2023-09-12T14:00:32;6.32;;;3.67;;
11807;SDS011;5961;42.640;23.380;2023-09-12T14:03:00;6.97;;;4.00;;
11807;SDS011;5961;42.640;23.380;2023-09-12T14:05:26;4.82;;;3.50;;
11807;SDS011;5961;42.640;23.380;2023-09-12T14:07:54;6.13;;;3.70;;
11807;SDS011;5961;42.640;23.380;2023-09-12T14:10:21;9.35;;;3.83;;
11807;SDS011;5961;42.640;23.380;2023-09-12T14:12:49;6.10;;;3.92;;
11807;SDS011;5961;42.640;23.380;2023-09-12T14:15:16;7.30;;;3.53;;
11807;SDS011;5961;42.640;23.380;2023-09-12T14:17:42;6.40;;;3.60;;
11807;SDS011;5961;42.640;23.380;2023-09-12T14:20:09;6.70;;;3.28;;
11807;SDS011;5961;42.640;23.380;2023-09-12T14:22:40;6.43;;;3.75;;
11807;SDS011;5961;42.640;23.380;2023-09-12T14:25:08;4.97;;;3.72;;
11807;SDS011;5961;42.640;23.380;2023-09-12T14:27:39;6.75;;;3.78;;
11807;SDS011;5961;42.640;23.380;2023-09-12T14:30:09;6.20;;;3.50;;
11807;SDS011;5961;42.640;23.380;2023-09-12T14:32:37;8.55;;;3.90;;
11807;SDS011;5961;42.640;23.380;2023-09-12T14:35:04;7.50;;;4.10;;
11807;SDS011;5961;42.640;23.380;2023-09-12T14:37:32;10.15;;;3.38;;
11807;SDS011;5961;42.640;23.380;2023-09-12T14:40:00;9.32;;;3.85;;
11807;SDS011;5961;42.640;23.380;2023-09-12T14:42:29;6.95;;;3.75;;
11807;SDS011;5961;42.640;23.380;2023-09-12T14:44:56;4.72;;;3.65;;
11807;SDS011;5961;42.640;23.380;2023-09-12T14:47:24;6.55;;;3.55;;
11807;SDS011;5961;42.640;23.380;2023-09-12T14:49:52;8.27;;;3.50;;
11807;SDS011;5961;42.640;23.380;2023-09-12T14:52:19;8.20;;;3.30;;
11807;SDS011;5961;42.640;23.380;2023-09-12T14:54:46;6.60;;;3.70;;
11807;SDS011;5961;42.640;23.380;2023-09-12T14:57:13;7.78;;;3.80;;
11807;SDS011;5961;42.640;23.380;2023-09-12T14:59:39;9.73;;;3.65;;
11807;SDS011;5961;42.640;23.380;2023-09-12T15:02:06;7.47;;;3.40;;
11807;SDS011;5961;42.640;23.380;2023-09-12T15:04:34;6.95;;;3.42;;
11807;SDS011;5961;42.640;23.380;2023-09-12T15:07:01;8.05;;;3.65;;
11807;SDS011;5961;42.640;23.380;2023-09-12T15:09:28;7.88;;;3.80;;